sensor_id;sensor_type;location;lat;lon;timestamp;pressure;altitude;pressure_sealevel;temperature;humidity
54556;BME280;57291;37.520;15.106;2023-08-06T00:02:26;100514.66;;;23.78;56.13
54556;BME280;57291;37.520;15.106;2023-08-06T00:04:54;100517.84;;;23.77;56.72
54556;BME280;57291;37.520;15.106;2023-08-06T00:07:21;100506.31;;;23.75;56.83
54556;BME280;57291;37.520;15.106;2023-08-06T00:09:48;100513.06;;;23.74;56.65
54556;BME280;57291;37.520;15.106;2023-08-06T00:12:15;100510.28;;;23.74;56.87
54556;BME280;57291;37.520;15.106;2023-08-06T00:14:42;100507.50;;;23.70;57.34
54556;BME280;57291;37.520;15.106;2023-08-06T00:17:09;100522.13;;;23.67;57.19
54556;BME280;57291;37.520;15.106;2023-08-06T00:19:36;100523.72;;;23.68;57.38
54556;BME280;57291;37.520;15.106;2023-08-06T00:22:04;100522.91;;;23.68;57.71
54556;BME280;57291;37.520;15.106;2023-08-06T00:24:31;100528.03;;;23.65;57.76
54556;BME280;57291;37.520;15.106;2023-08-06T00:26:58;100521.31;;;23.67;58.28
54556;BME280;57291;37.520;15.106;2023-08-06T00:29:25;100529.66;;;23.67;58.04
54556;BME280;57291;37.520;15.106;2023-08-06T00:31:52;100532.00;;;23.64;57.85
54556;BME280;57291;37.520;15.106;2023-08-06T00:34:19;100534.38;;;23.62;58.46
54556;BME280;57291;37.520;15.106;2023-08-06T00:36:46;100532.78;;;23.61;58.23
54556;BME280;57291;37.520;15.106;2023-08-06T00:39:14;100534.75;;;23.61;58.39
54556;BME280;57291;37.520;15.106;2023-08-06T00:41:41;100537.53;;;23.57;58.20
54556;BME280;57291;37.520;15.106;2023-08-06T00:44:08;100530.78;;;23.58;58.34
54556;BME280;57291;37.520;15.106;2023-08-06T00:46:35;100536.31;;;23.55;58.54
54556;BME280;57291;37.520;15.106;2023-08-06T00:49:03;100540.25;;;23.50;58.60
54556;BME280;57291;37.520;15.106;2023-08-06T00:51:31;100536.69;;;23.46;58.82
54556;BME280;57291;37.520;15.106;2023-08-06T00:53:59;100547.34;;;23.44;59.20
54556;BME280;57291;37.520;15.106;2023-08-06T00:56:27;100535.44;;;23.40;58.81
54556;BME280;57291;37.520;15.106;2023-08-06T00:58:54;100548.50;;;23.39;59.06
54556;BME280;57291;37.520;15.106;2023-08-06T01:01:21;100561.19;;;23.37;59.16
54556;BME280;57291;37.520;15.106;2023-08-06T01:03:49;100553.63;;;23.34;59.58
54556;BME280;57291;37.520;15.106;2023-08-06T01:06:19;100556.78;;;23.32;59.40
54556;BME280;57291;37.520;15.106;2023-08-06T01:09:01;100555.19;;;23.31;59.29
54556;BME280;57291;37.520;15.106;2023-08-06T01:16:50;100544.84;;;23.21;59.70
54556;BME280;57291;37.520;15.106;2023-08-06T01:19:18;100555.91;;;23.21;59.35
54556;BME280;57291;37.520;15.106;2023-08-06T01:21:46;100546.03;;;23.24;59.69
54556;BME280;57291;37.520;15.106;2023-08-06T01:24:13;100541.28;;;23.24;59.76
54556;BME280;57291;37.520;15.106;2023-08-06T01:26:53;100537.72;;;23.24;59.89
54556;BME280;57291;37.520;15.106;2023-08-06T01:29:36;100534.56;;;23.29;59.64
54556;BME280;57291;37.520;15.106;2023-08-06T01:32:08;100529.81;;;23.29;59.52
54556;BME280;57291;37.520;15.106;2023-08-06T01:34:39;100539.78;;;23.34;59.14
54556;BME280;57291;37.520;15.106;2023-08-06T01:37:09;100533.03;;;23.35;59.04
54556;BME280;57291;37.520;15.106;2023-08-06T01:39:40;100529.84;;;23.33;58.69
54556;BME280;57291;37.520;15.106;2023-08-06T01:42:09;100520.75;;;23.36;58.73
54556;BME280;57291;37.520;15.106;2023-08-06T01:44:36;100518.78;;;23.36;58.84
54556;BME280;57291;37.520;15.106;2023-08-06T01:47:03;100531.06;;;23.39;58.65
54556;BME280;57291;37.520;15.106;2023-08-06T01:49:32;100523.94;;;23.38;58.34
54556;BME280;57291;37.520;15.106;2023-08-06T01:51:59;100518.78;;;23.36;58.64
54556;BME280;57291;37.520;15.106;2023-08-06T01:54:26;100515.19;;;23.36;59.29
54556;BME280;57291;37.520;15.106;2023-08-06T01:56:54;100496.56;;;23.33;59.73
54556;BME280;57291;37.520;15.106;2023-08-06T01:59:21;100502.09;;;23.29;59.64
54556;BME280;57291;37.520;15.106;2023-08-06T02:01:48;100498.06;;;23.20;60.12
54556;BME280;57291;37.520;15.106;2023-08-06T02:04:16;100498.44;;;23.11;60.12
54556;BME280;57291;37.520;15.106;2023-08-06T02:06:43;100498.78;;;23.06;59.73
54556;BME280;57291;37.520;15.106;2023-08-06T02:09:11;100503.13;;;23.03;59.85
54556;BME280;57291;37.520;15.106;2023-08-06T02:11:38;100513.81;;;23.01;59.73
54556;BME280;57291;37.520;15.106;2023-08-06T02:14:05;100517.78;;;23.00;59.55
54556;BME280;57291;37.520;15.106;2023-08-06T02:16:32;100516.88;;;22.92;59.57
54556;BME280;57291;37.520;15.106;2023-08-06T02:18:59;100513.69;;;22.87;60.27
54556;BME280;57291;37.520;15.106;2023-08-06T02:21:26;100514.38;;;22.80;59.89
54556;BME280;57291;37.520;15.106;2023-08-06T02:23:53;100507.63;;;22.74;60.37
54556;BME280;57291;37.520;15.106;2023-08-06T02:26:21;100511.53;;;22.69;60.42
54556;BME280;57291;37.520;15.106;2023-08-06T02:28:48;100505.97;;;22.66;60.58
54556;BME280;57291;37.520;15.106;2023-08-06T02:31:15;100509.94;;;22.65;60.69
54556;BME280;57291;37.520;15.106;2023-08-06T02:33:43;100511.13;;;22.64;60.93
54556;BME280;57291;37.520;15.106;2023-08-06T02:36:10;100511.88;;;22.61;60.86
54556;BME280;57291;37.520;15.106;2023-08-06T02:38:37;100515.81;;;22.60;61.16
54556;BME280;57291;37.520;15.106;2023-08-06T02:41:04;100512.25;;;22.59;60.86
54556;BME280;57291;37.520;15.106;2023-08-06T02:43:32;100503.50;;;22.57;61.10
54556;BME280;57291;37.520;15.106;2023-08-06T02:46:00;100513.44;;;22.58;61.15
54556;BME280;57291;37.520;15.106;2023-08-06T02:48:27;100503.13;;;22.55;61.12
54556;BME280;57291;37.520;15.106;2023-08-06T02:50:59;100499.13;;;22.53;61.08
54556;BME280;57291;37.520;15.106;2023-08-06T02:53:28;100499.91;;;22.53;61.36
54556;BME280;57291;37.520;15.106;2023-08-06T02:55:57;100499.88;;;22.50;61.56
54556;BME280;57291;37.520;15.106;2023-08-06T02:58:32;100501.44;;;22.47;61.38
54556;BME280;57291;37.520;15.106;2023-08-06T03:01:07;100501.03;;;22.45;61.78
54556;BME280;57291;37.520;15.106;2023-08-06T03:03:43;100489.97;;;22.45;61.70
54556;BME280;57291;37.520;15.106;2023-08-06T03:06:17;100489.53;;;22.39;61.91
54556;BME280;57291;37.520;15.106;2023-08-06T03:08:48;100497.41;;;22.37;61.87
54556;BME280;57291;37.520;15.106;2023-08-06T03:11:15;100497.78;;;22.36;61.82
54556;BME280;57291;37.520;15.106;2023-08-06T03:13:42;100500.56;;;22.36;61.81
54556;BME280;57291;37.520;15.106;2023-08-06T03:16:10;100500.09;;;22.30;61.98
54556;BME280;57291;37.520;15.106;2023-08-06T03:18:38;100512.41;;;22.33;62.08
54556;BME280;57291;37.520;15.106;2023-08-06T03:21:07;100512.78;;;22.31;62.29
54556;BME280;57291;37.520;15.106;2023-08-06T03:23:34;100508.84;;;22.32;62.30
54556;BME280;57291;37.520;15.106;2023-08-06T03:26:02;100527.78;;;22.30;62.38
54556;BME280;57291;37.520;15.106;2023-08-06T03:28:31;100528.19;;;22.29;62.31
54556;BME280;57291;37.520;15.106;2023-08-06T03:31:03;100517.50;;;22.31;62.48
54556;BME280;57291;37.520;15.106;2023-08-06T03:33:39;100513.97;;;22.34;62.91
54556;BME280;57291;37.520;15.106;2023-08-06T03:36:10;100510.44;;;22.37;62.75
54556;BME280;57291;37.520;15.106;2023-08-06T03:38:37;100520.75;;;22.40;62.61
54556;BME280;57291;37.520;15.106;2023-08-06T03:41:07;100516.44;;;22.42;62.26
54556;BME280;57291;37.520;15.106;2023-08-06T03:43:34;100519.59;;;22.41;62.36
54556;BME280;57291;37.520;15.106;2023-08-06T03:46:05;100525.94;;;22.41;62.69
54556;BME280;57291;37.520;15.106;2023-08-06T03:48:33;100525.94;;;22.41;62.86
54556;BME280;57291;37.520;15.106;2023-08-06T03:51:00;100531.06;;;22.43;62.61
54556;BME280;57291;37.520;15.106;2023-08-06T03:53:29;100538.19;;;22.44;62.59
54556;BME280;57291;37.520;15.106;2023-08-06T03:55:57;100534.28;;;22.45;62.12
54556;BME280;57291;37.520;15.106;2023-08-06T03:58:28;100527.19;;;22.47;61.61
54556;BME280;57291;37.520;15.106;2023-08-06T04:01:01;100535.50;;;22.47;61.40
54556;BME280;57291;37.520;15.106;2023-08-06T04:03:38;100538.28;;;22.51;61.02
54556;BME280;57291;37.520;15.106;2023-08-06T04:06:06;100540.69;;;22.56;60.71
54556;BME280;57291;37.520;15.106;2023-08-06T04:08:35;100541.13;;;22.58;60.69
54556;BME280;57291;37.520;15.106;2023-08-06T04:11:02;100543.94;;;22.62;60.89
54556;BME280;57291;37.520;15.106;2023-08-06T04:13:30;100548.66;;;22.58;61.03
54556;BME280;57291;37.520;15.106;2023-08-06T04:16:04;100551.78;;;22.56;61.13
54556;BME280;57291;37.520;15.106;2023-08-06T04:18:32;100544.66;;;22.55;61.13
54556;BME280;57291;37.520;15.106;2023-08-06T04:21:01;100548.22;;;22.56;60.76
54556;BME280;57291;37.520;15.106;2023-08-06T04:23:28;100548.66;;;22.58;61.00
54556;BME280;57291;37.520;15.106;2023-08-06T04:26:00;100544.28;;;22.60;60.75
54556;BME280;57291;37.520;15.106;2023-08-06T04:28:31;100551.44;;;22.61;60.98
54556;BME280;57291;37.520;15.106;2023-08-06T04:30:59;100555.78;;;22.62;60.61
54556;BME280;57291;37.520;15.106;2023-08-06T04:33:28;100563.69;;;22.60;60.92
54556;BME280;57291;37.520;15.106;2023-08-06T04:35:58;100563.75;;;22.64;61.21
54556;BME280;57291;37.520;15.106;2023-08-06T04:38:26;100559.31;;;22.59;61.31
54556;BME280;57291;37.520;15.106;2023-08-06T04:40:54;100569.63;;;22.59;61.08
54556;BME280;57291;37.520;15.106;2023-08-06T04:43:23;100571.19;;;22.60;61.53
54556;BME280;57291;37.520;15.106;2023-08-06T04:45:54;100564.91;;;22.63;61.61
54556;BME280;57291;37.520;15.106;2023-08-06T04:48:22;100568.84;;;22.62;61.88
54556;BME280;57291;37.520;15.106;2023-08-06T04:50:50;100561.75;;;22.64;61.73
54556;BME280;57291;37.520;15.106;2023-08-06T04:53:17;100559.81;;;22.68;62.03
54556;BME280;57291;37.520;15.106;2023-08-06T04:55:44;100553.91;;;22.74;61.73
54556;BME280;57291;37.520;15.106;2023-08-06T04:58:12;100556.78;;;22.81;60.85
54556;BME280;57291;37.520;15.106;2023-08-06T05:00:39;100561.16;;;22.85;60.83
54556;BME280;57291;37.520;15.106;2023-08-06T05:03:08;100562.03;;;22.93;60.65
54556;BME280;57291;37.520;15.106;2023-08-06T05:05:35;100562.16;;;23.07;60.42
54556;BME280;57291;37.520;15.106;2023-08-06T05:08:02;100553.59;;;23.27;59.52
54556;BME280;57291;37.520;15.106;2023-08-06T05:10:29;100572.13;;;23.78;57.93
54556;BME280;57291;37.520;15.106;2023-08-06T05:12:57;100576.03;;;25.00;54.44
54556;BME280;57291;37.520;15.106;2023-08-06T05:15:24;100571.25;;;26.53;50.32
54556;BME280;57291;37.520;15.106;2023-08-06T05:17:52;100586.06;;;27.43;48.03
54556;BME280;57291;37.520;15.106;2023-08-06T05:20:20;100588.56;;;27.72;46.75
54556;BME280;57291;37.520;15.106;2023-08-06T05:22:47;100595.13;;;28.23;46.21
54556;BME280;57291;37.520;15.106;2023-08-06T05:25:14;100589.50;;;28.26;45.62
54556;BME280;57291;37.520;15.106;2023-08-06T05:27:42;100610.50;;;27.70;46.71
54556;BME280;57291;37.520;15.106;2023-08-06T05:30:09;100613.72;;;26.71;48.58
54556;BME280;57291;37.520;15.106;2023-08-06T05:32:37;100616.84;;;26.07;50.67
54556;BME280;57291;37.520;15.106;2023-08-06T05:35:04;100618.47;;;25.76;51.83
54556;BME280;57291;37.520;15.106;2023-08-06T05:37:31;100620.09;;;25.87;51.46
54556;BME280;57291;37.520;15.106;2023-08-06T05:39:59;100627.84;;;26.32;50.48
54556;BME280;57291;37.520;15.106;2023-08-06T05:42:26;100622.19;;;27.61;48.01
54556;BME280;57291;37.520;15.106;2023-08-06T05:44:53;100631.34;;;28.34;45.54
54556;BME280;57291;37.520;15.106;2023-08-06T05:47:20;100630.97;;;29.16;43.41
54556;BME280;57291;37.520;15.106;2023-08-06T05:49:47;100628.75;;;29.75;42.13
54556;BME280;57291;37.520;15.106;2023-08-06T05:52:14;100630.34;;;30.35;40.89
54556;BME280;57291;37.520;15.106;2023-08-06T05:54:41;100638.34;;;30.53;40.06
54556;BME280;57291;37.520;15.106;2023-08-06T05:57:08;100632.06;;;30.29;40.10
54556;BME280;57291;37.520;15.106;2023-08-06T05:59:35;100647.19;;;30.88;38.99
54556;BME280;57291;37.520;15.106;2023-08-06T06:02:03;100647.31;;;31.34;37.80
54556;BME280;57291;37.520;15.106;2023-08-06T06:04:30;100634.34;;;31.98;37.82
54556;BME280;57291;37.520;15.106;2023-08-06T06:06:57;100627.09;;;32.68;35.83
54556;BME280;57291;37.520;15.106;2023-08-06T06:09:24;100624.03;;;32.62;35.60
54556;BME280;57291;37.520;15.106;2023-08-06T06:11:51;100623.84;;;33.30;35.43
54556;BME280;57291;37.520;15.106;2023-08-06T06:14:19;100620.22;;;33.77;33.87
54556;BME280;57291;37.520;15.106;2023-08-06T06:16:46;100626.31;;;33.97;33.31
54556;BME280;57291;37.520;15.106;2023-08-06T06:19:13;100636.22;;;33.80;33.72
54556;BME280;57291;37.520;15.106;2023-08-06T06:21:40;100622.91;;;33.46;33.47
54556;BME280;57291;37.520;15.106;2023-08-06T06:24:07;100625.53;;;33.75;33.48
54556;BME280;57291;37.520;15.106;2023-08-06T06:26:35;100639.19;;;34.20;32.97
54556;BME280;57291;37.520;15.106;2023-08-06T06:29:02;100628.72;;;34.52;32.00
54556;BME280;57291;37.520;15.106;2023-08-06T06:31:31;100630.75;;;34.92;31.30
54556;BME280;57291;37.520;15.106;2023-08-06T06:33:58;100629.09;;;35.13;30.93
54556;BME280;57291;37.520;15.106;2023-08-06T06:36:25;100638.69;;;35.24;29.90
54556;BME280;57291;37.520;15.106;2023-08-06T06:38:52;100633.53;;;35.32;30.32
54556;BME280;57291;37.520;15.106;2023-08-06T06:41:19;100639.03;;;35.45;29.92
54556;BME280;57291;37.520;15.106;2023-08-06T06:43:46;100636.78;;;35.31;29.71
54556;BME280;57291;37.520;15.106;2023-08-06T06:46:14;100631.19;;;35.49;29.71
54556;BME280;57291;37.520;15.106;2023-08-06T06:48:41;100632.28;;;35.42;30.06
54556;BME280;57291;37.520;15.106;2023-08-06T06:51:08;100634.81;;;35.68;29.26
54556;BME280;57291;37.520;15.106;2023-08-06T06:53:35;100635.25;;;35.48;30.04
54556;BME280;57291;37.520;15.106;2023-08-06T06:56:04;100633.06;;;36.07;29.18
54556;BME280;57291;37.520;15.106;2023-08-06T06:58:32;100646.28;;;36.95;28.38
54556;BME280;57291;37.520;15.106;2023-08-06T07:00:59;100654.13;;;35.60;30.54
54556;BME280;57291;37.520;15.106;2023-08-06T07:03:27;100641.25;;;33.85;33.80
54556;BME280;57291;37.520;15.106;2023-08-06T07:05:57;100648.81;;;32.55;36.86
54556;BME280;57291;37.520;15.106;2023-08-06T07:08:25;100657.56;;;32.15;38.94
54556;BME280;57291;37.520;15.106;2023-08-06T07:11:03;100651.50;;;31.87;39.89
54556;BME280;57291;37.520;15.106;2023-08-06T07:13:31;100666.16;;;31.66;40.90
54556;BME280;57291;37.520;15.106;2023-08-06T07:15:58;100665.69;;;31.67;40.46
54556;BME280;57291;37.520;15.106;2023-08-06T07:18:25;100646.88;;;30.66;43.25
54556;BME280;57291;37.520;15.106;2023-08-06T07:20:54;100657.22;;;30.69;43.47
54556;BME280;57291;37.520;15.106;2023-08-06T07:23:25;100663.41;;;30.80;43.71
54556;BME280;57291;37.520;15.106;2023-08-06T07:25:53;100662.31;;;31.43;41.53
54556;BME280;57291;37.520;15.106;2023-08-06T07:28:20;100667.03;;;31.30;42.20
54556;BME280;57291;37.520;15.106;2023-08-06T07:30:47;100662.75;;;31.87;41.63
54556;BME280;57291;37.520;15.106;2023-08-06T07:33:14;100676.03;;;32.16;42.29
54556;BME280;57291;37.520;15.106;2023-08-06T07:35:41;100673.22;;;32.58;41.20
54556;BME280;57291;37.520;15.106;2023-08-06T07:38:10;100664.97;;;32.51;41.33
54556;BME280;57291;37.520;15.106;2023-08-06T07:40:37;100668.94;;;32.66;40.86
54556;BME280;57291;37.520;15.106;2023-08-06T07:43:04;100679.84;;;32.89;42.00
54556;BME280;57291;37.520;15.106;2023-08-06T07:45:33;100684.38;;;33.25;41.14
54556;BME280;57291;37.520;15.106;2023-08-06T07:48:02;100687.84;;;32.78;41.85
54556;BME280;57291;37.520;15.106;2023-08-06T07:50:29;100690.88;;;32.16;42.84
54556;BME280;57291;37.520;15.106;2023-08-06T07:52:56;100692.13;;;31.70;44.18
54556;BME280;57291;37.520;15.106;2023-08-06T07:55:23;100701.06;;;31.32;45.57
54556;BME280;57291;37.520;15.106;2023-08-06T07:57:50;100697.22;;;31.59;45.99
54556;BME280;57291;37.520;15.106;2023-08-06T08:00:17;100698.22;;;31.97;45.25
54556;BME280;57291;37.520;15.106;2023-08-06T08:02:46;100699.00;;;32.27;45.41
54556;BME280;57291;37.520;15.106;2023-08-06T08:05:13;100710.03;;;31.60;46.95
54556;BME280;57291;37.520;15.106;2023-08-06T08:07:40;100705.50;;;32.24;45.87
54556;BME280;57291;37.520;15.106;2023-08-06T08:10:07;100709.66;;;31.74;45.83
54556;BME280;57291;37.520;15.106;2023-08-06T08:12:35;100707.34;;;31.85;46.63
54556;BME280;57291;37.520;15.106;2023-08-06T08:15:02;100705.81;;;32.13;45.54
54556;BME280;57291;37.520;15.106;2023-08-06T08:17:30;100717.75;;;31.56;46.52
54556;BME280;57291;37.520;15.106;2023-08-06T08:19:57;100718.03;;;32.36;44.80
54556;BME280;57291;37.520;15.106;2023-08-06T08:22:24;100716.78;;;31.62;46.23
54556;BME280;57291;37.520;15.106;2023-08-06T08:24:51;100713.53;;;31.31;47.00
54556;BME280;57291;37.520;15.106;2023-08-06T08:27:18;100707.69;;;32.04;45.67
54556;BME280;57291;37.520;15.106;2023-08-06T08:29:45;100707.09;;;32.25;44.22
54556;BME280;57291;37.520;15.106;2023-08-06T08:32:12;100707.75;;;32.84;41.59
54556;BME280;57291;37.520;15.106;2023-08-06T08:34:39;100708.13;;;33.24;40.43
54556;BME280;57291;37.520;15.106;2023-08-06T08:37:07;100710.72;;;33.19;41.60
54556;BME280;57291;37.520;15.106;2023-08-06T08:39:34;100711.09;;;33.08;40.31
54556;BME280;57291;37.520;15.106;2023-08-06T08:42:01;100724.88;;;32.77;41.22
54556;BME280;57291;37.520;15.106;2023-08-06T08:44:30;100730.91;;;32.50;42.03
54556;BME280;57291;37.520;15.106;2023-08-06T08:47:01;100726.78;;;31.96;44.03
54556;BME280;57291;37.520;15.106;2023-08-06T08:49:29;100730.59;;;31.40;43.59
54556;BME280;57291;37.520;15.106;2023-08-06T08:51:59;100727.56;;;31.15;45.24
54556;BME280;57291;37.520;15.106;2023-08-06T08:54:31;100730.06;;;30.73;42.99
54556;BME280;57291;37.520;15.106;2023-08-06T08:56:59;100739.94;;;30.61;45.80
54556;BME280;57291;37.520;15.106;2023-08-06T08:59:27;100738.81;;;30.38;48.07
54556;BME280;57291;37.520;15.106;2023-08-06T09:01:55;100739.41;;;30.06;50.14
54556;BME280;57291;37.520;15.106;2023-08-06T09:04:23;100725.31;;;29.66;52.34
54556;BME280;57291;37.520;15.106;2023-08-06T09:06:53;100717.69;;;29.16;54.66
54556;BME280;57291;37.520;15.106;2023-08-06T09:09:26;100722.88;;;29.41;55.16
54556;BME280;57291;37.520;15.106;2023-08-06T09:11:59;100719.31;;;29.41;54.00
54556;BME280;57291;37.520;15.106;2023-08-06T09:14:28;100716.56;;;29.37;54.60
54556;BME280;57291;37.520;15.106;2023-08-06T09:16:56;100709.56;;;29.26;54.58
54556;BME280;57291;37.520;15.106;2023-08-06T09:19:24;100714.59;;;28.80;53.93
54556;BME280;57291;37.520;15.106;2023-08-06T09:21:51;100710.03;;;28.28;53.71
54556;BME280;57291;37.520;15.106;2023-08-06T09:24:19;100705.72;;;28.24;51.46
54556;BME280;57291;37.520;15.106;2023-08-06T09:26:47;100702.88;;;28.27;48.12
54556;BME280;57291;37.520;15.106;2023-08-06T09:29:14;100697.13;;;28.38;44.91
54556;BME280;57291;37.520;15.106;2023-08-06T09:31:45;100707.63;;;28.31;45.23
54556;BME280;57291;37.520;15.106;2023-08-06T09:36:53;100703.78;;;28.17;46.92
54556;BME280;57291;37.520;15.106;2023-08-06T09:39:30;100709.47;;;28.06;46.85
54556;BME280;57291;37.520;15.106;2023-08-06T09:41:59;100708.19;;;28.15;47.50
54556;BME280;57291;37.520;15.106;2023-08-06T09:44:29;100710.16;;;28.18;46.69
54556;BME280;57291;37.520;15.106;2023-08-06T09:46:59;100701.69;;;28.25;48.12
54556;BME280;57291;37.520;15.106;2023-08-06T09:52:00;100701.09;;;28.75;44.90
54556;BME280;57291;37.520;15.106;2023-08-06T09:54:27;100700.31;;;29.02;45.39
54556;BME280;57291;37.520;15.106;2023-08-06T09:56:57;100699.91;;;29.03;44.08
54556;BME280;57291;37.520;15.106;2023-08-06T09:59:24;100708.00;;;28.94;43.37
54556;BME280;57291;37.520;15.106;2023-08-06T10:01:54;100712.44;;;28.91;44.02
54556;BME280;57291;37.520;15.106;2023-08-06T10:04:23;100704.31;;;28.73;44.26
54556;BME280;57291;37.520;15.106;2023-08-06T10:06:56;100700.59;;;29.11;45.10
54556;BME280;57291;37.520;15.106;2023-08-06T10:09:24;100697.88;;;29.31;43.01
54556;BME280;57291;37.520;15.106;2023-08-06T10:11:52;100700.00;;;29.23;43.36
54556;BME280;57291;37.520;15.106;2023-08-06T10:14:32;100696.38;;;28.95;42.57
54556;BME280;57291;37.520;15.106;2023-08-06T10:17:00;100703.91;;;29.02;41.68
54556;BME280;57291;37.520;15.106;2023-08-06T10:19:29;100699.38;;;29.12;43.70
54556;BME280;57291;37.520;15.106;2023-08-06T10:22:10;100699.97;;;28.69;43.44
54556;BME280;57291;37.520;15.106;2023-08-06T10:24:51;100701.13;;;28.71;44.01
54556;BME280;57291;37.520;15.106;2023-08-06T10:30:31;100699.88;;;28.45;45.01
54556;BME280;57291;37.520;15.106;2023-08-06T10:33:01;100691.88;;;28.10;46.73
54556;BME280;57291;37.520;15.106;2023-08-06T10:38:07;100686.00;;;28.35;48.99
54556;BME280;57291;37.520;15.106;2023-08-06T10:40:36;100689.97;;;28.41;47.49
54556;BME280;57291;37.520;15.106;2023-08-06T10:43:04;100687.56;;;28.39;45.17
54556;BME280;57291;37.520;15.106;2023-08-06T10:45:37;100691.50;;;28.45;47.53
54556;BME280;57291;37.520;15.106;2023-08-06T10:48:04;100682.03;;;28.66;46.84
54556;BME280;57291;37.520;15.106;2023-08-06T10:50:32;100699.53;;;29.01;47.04
54556;BME280;57291;37.520;15.106;2023-08-06T10:53:04;100697.56;;;28.98;47.20
54556;BME280;57291;37.520;15.106;2023-08-06T10:55:32;100689.50;;;28.77;48.39
54556;BME280;57291;37.520;15.106;2023-08-06T10:57:59;100690.69;;;28.45;47.62
54556;BME280;57291;37.520;15.106;2023-08-06T11:00:27;100684.94;;;28.25;48.76
54556;BME280;57291;37.520;15.106;2023-08-06T11:02:54;100687.81;;;28.18;48.51
54556;BME280;57291;37.520;15.106;2023-08-06T11:05:22;100687.03;;;28.17;49.61
54556;BME280;57291;37.520;15.106;2023-08-06T11:07:49;100681.69;;;28.26;51.18
54556;BME280;57291;37.520;15.106;2023-08-06T11:10:18;100676.22;;;28.54;48.62
54556;BME280;57291;37.520;15.106;2023-08-06T11:12:45;100688.47;;;28.90;47.84
54556;BME280;57291;37.520;15.106;2023-08-06T11:15:12;100680.63;;;28.82;46.92
54556;BME280;57291;37.520;15.106;2023-08-06T11:17:40;100684.47;;;28.64;49.37
54556;BME280;57291;37.520;15.106;2023-08-06T11:20:09;100683.53;;;28.44;50.42
54556;BME280;57291;37.520;15.106;2023-08-06T11:22:37;100680.56;;;28.24;51.93
54556;BME280;57291;37.520;15.106;2023-08-06T11:25:06;100680.13;;;28.25;50.34
54556;BME280;57291;37.520;15.106;2023-08-06T11:27:33;100683.59;;;28.02;52.83
54556;BME280;57291;37.520;15.106;2023-08-06T11:30:01;100676.78;;;28.03;54.15
54556;BME280;57291;37.520;15.106;2023-08-06T11:32:28;100673.53;;;28.09;51.88
54556;BME280;57291;37.520;15.106;2023-08-06T11:34:56;100678.16;;;27.88;55.57
54556;BME280;57291;37.520;15.106;2023-08-06T11:37:23;100671.38;;;27.89;54.68
54556;BME280;57291;37.520;15.106;2023-08-06T11:39:52;100666.94;;;27.92;55.39
54556;BME280;57291;37.520;15.106;2023-08-06T11:42:19;100662.63;;;27.83;55.45
54556;BME280;57291;37.520;15.106;2023-08-06T11:44:47;100657.69;;;27.98;56.35
54556;BME280;57291;37.520;15.106;2023-08-06T11:47:16;100658.50;;;27.99;56.68
54556;BME280;57291;37.520;15.106;2023-08-06T11:49:46;100650.72;;;27.79;56.36
54556;BME280;57291;37.520;15.106;2023-08-06T11:52:18;100658.34;;;28.10;54.55
54556;BME280;57291;37.520;15.106;2023-08-06T11:55:04;100657.66;;;28.02;54.05
54556;BME280;57291;37.520;15.106;2023-08-06T11:57:38;100646.69;;;27.84;57.62
54556;BME280;57291;37.520;15.106;2023-08-06T12:00:11;100655.56;;;28.10;57.84
54556;BME280;57291;37.520;15.106;2023-08-06T12:02:42;100659.00;;;28.24;55.36
54556;BME280;57291;37.520;15.106;2023-08-06T12:05:16;100654.84;;;28.40;56.16
54556;BME280;57291;37.520;15.106;2023-08-06T12:07:45;100645.72;;;28.63;56.12
54556;BME280;57291;37.520;15.106;2023-08-06T12:10:14;100661.16;;;28.74;56.51
54556;BME280;57291;37.520;15.106;2023-08-06T12:12:41;100650.91;;;28.64;55.80
54556;BME280;57291;37.520;15.106;2023-08-06T12:15:09;100654.25;;;28.21;54.92
54556;BME280;57291;37.520;15.106;2023-08-06T12:17:37;100648.63;;;27.91;57.47
54556;BME280;57291;37.520;15.106;2023-08-06T12:20:06;100649.72;;;27.97;57.52
54556;BME280;57291;37.520;15.106;2023-08-06T12:22:34;100653.94;;;28.12;57.70
54556;BME280;57291;37.520;15.106;2023-08-06T12:25:03;100646.56;;;27.95;60.08
54556;BME280;57291;37.520;15.106;2023-08-06T12:27:30;100655.78;;;27.92;56.60
54556;BME280;57291;37.520;15.106;2023-08-06T12:29:57;100647.56;;;27.74;60.87
54556;BME280;57291;37.520;15.106;2023-08-06T12:32:24;100650.06;;;27.65;60.46
54556;BME280;57291;37.520;15.106;2023-08-06T12:34:51;100647.56;;;27.77;61.06
54556;BME280;57291;37.520;15.106;2023-08-06T12:37:19;100646.31;;;28.16;59.02
54556;BME280;57291;37.520;15.106;2023-08-06T12:39:46;100642.41;;;28.44;58.73
54556;BME280;57291;37.520;15.106;2023-08-06T12:42:13;100642.25;;;28.55;57.08
54556;BME280;57291;37.520;15.106;2023-08-06T12:44:41;100646.06;;;28.68;58.25
54556;BME280;57291;37.520;15.106;2023-08-06T12:47:08;100634.41;;;28.46;59.95
54556;BME280;57291;37.520;15.106;2023-08-06T12:49:35;100644.53;;;28.29;59.16
54556;BME280;57291;37.520;15.106;2023-08-06T12:52:02;100644.88;;;28.35;58.66
54556;BME280;57291;37.520;15.106;2023-08-06T12:54:31;100641.53;;;28.17;59.20
54556;BME280;57291;37.520;15.106;2023-08-06T12:57:05;100635.97;;;28.13;57.91
54556;BME280;57291;37.520;15.106;2023-08-06T12:59:33;100641.56;;;28.13;59.05
54556;BME280;57291;37.520;15.106;2023-08-06T13:02:00;100657.84;;;27.88;60.47
54556;BME280;57291;37.520;15.106;2023-08-06T13:04:28;100647.09;;;27.82;60.18